Time;durP1;ratioP1;P1;durP2;ratioP2;P2;SDS_P1;SDS_P2;PMS_P1;PMS_P2;Temp;Humidity;BMP_temperature;BMP_pressure;BME280_temperature;BME280_humidity;BME280_pressure;Samples;Min_cycle;Max_cycle;Signal;HPM_P1;HPM_P2
2021/12/06 00:00:17;;;;;;;74.47;38.92;;;;;;;0.65;100.00;98867.31;4875888;29;20041;-83
2021/12/06 00:02:42;;;;;;;;;;;;;;;0.71;100.00;98874.03;4876356;29;20048;-82
2021/12/06 00:05:09;;;;;;;74.75;39.58;;;;;;;0.61;100.00;98859.72;4912193;29;19911;-83
2021/12/06 00:07:34;;;;;;;74.50;38.90;;;;;;;0.61;100.00;98862.28;4967591;28;20038;-83
2021/12/06 00:10:00;;;;;;;79.38;39.83;;;;;;;0.71;100.00;98871.47;4970382;28;20027;-83
2021/12/06 00:12:25;;;;;;;74.80;40.67;;;;;;;0.66;100.00;98856.19;4953990;28;20038;-83
2021/12/06 00:14:51;;;;;;;78.13;41.40;;;;;;;0.74;100.00;98881.69;4971629;28;20061;-83
2021/12/06 00:17:17;;;;;;;79.10;42.20;;;;;;;0.74;100.00;98874.00;4989718;28;20059;-81
2021/12/06 00:19:44;;;;;;;83.00;44.90;;;;;;;0.66;100.00;98871.56;4973685;28;20038;-81
2021/12/06 00:22:13;;;;;;;86.05;43.58;;;;;;;0.72;100.00;98879.16;4973771;28;20125;-81
2021/12/06 00:24:41;;;;;;;85.35;46.25;;;;;;;0.50;100.00;98840.25;5023915;28;20079;-81
2021/12/06 00:27:07;;;;;;;87.28;45.58;;;;;;;0.71;100.00;98877.44;5015570;28;20034;-81
2021/12/06 00:29:33;;;;;;;83.55;42.67;;;;;;;0.74;100.00;98866.31;5029052;28;20041;-81
2021/12/06 00:31:59;;;;;;;85.80;44.45;;;;;;;0.73;100.00;98880.84;5029422;28;20063;-81
2021/12/06 00:34:30;;;;;;;84.53;42.42;;;;;;;0.72;100.00;98883.44;5028837;28;20499;-81
2021/12/06 00:37:15;;;;;;;80.60;39.80;;;;;;;0.69;100.00;98881.78;5029143;28;20029;-81
2021/12/06 00:39:40;;;;;;;82.65;41.92;;;;;;;0.66;100.00;98880.97;5009236;28;20139;-81
2021/12/06 00:42:06;;;;;;;79.80;42.95;;;;;;;0.59;100.00;98879.41;4970212;28;20128;-81
2021/12/06 00:44:36;;;;;;;79.32;42.97;;;;;;;0.65;100.00;98890.38;4953901;28;20081;-82
2021/12/06 00:47:02;;;;;;;82.75;41.22;;;;;;;0.62;100.00;98889.59;4970547;28;20039;-81
2021/12/06 00:49:32;;;;;;;85.75;45.10;;;;;;;0.55;100.00;98878.63;4970405;28;20126;-81
2021/12/06 00:51:58;;;;;;;90.83;45.27;;;;;;;0.49;100.00;98877.00;4954201;28;20066;-81
2021/12/06 00:54:25;;;;;;;91.85;47.03;;;;;;;0.57;100.00;98892.25;4953747;28;20122;-81
2021/12/06 00:56:50;;;;;;;84.13;47.15;;;;;;;0.53;100.00;98889.78;4970217;28;20077;-81
2021/12/06 00:59:16;;;;;;;91.38;50.42;;;;;;;0.55;100.00;98898.25;4970355;28;20078;-81
2021/12/06 01:01:41;;;;;;;96.90;49.72;;;;;;;0.40;100.00;98873.78;4974021;28;20046;-81
2021/12/06 01:04:07;;;;;;;98.45;52.00;;;;;;;0.36;100.00;98870.41;4934663;29;20035;-81
2021/12/06 01:06:32;;;;;;;102.30;52.58;;;;;;;0.48;100.00;98900.94;4919196;29;20488;-81
2021/12/06 01:08:58;;;;;;;96.47;50.78;;;;;;;0.35;100.00;98880.72;4919386;29;20440;-81
2021/12/06 01:11:25;;;;;;;105.00;52.90;;;;;;;0.41;100.00;98893.38;4930680;28;20070;-81
2021/12/06 01:13:50;;;;;;;99.13;53.95;;;;;;;0.42;100.00;98905.31;4989282;28;20155;-81
2021/12/06 01:16:16;;;;;;;102.38;55.78;;;;;;;0.31;100.00;98886.75;5005829;28;20517;-81
2021/12/06 01:18:42;;;;;;;107.15;56.47;;;;;;;0.16;100.00;98872.47;5012739;28;20089;-81
2021/12/06 01:24:08;;;;;;;106.47;53.78;;;;;;;0.34;100.00;98910.59;4941846;29;20047;-81
2021/12/06 01:27:04;;;;;;;101.88;53.45;;;;;;;0.36;100.00;98910.56;4945281;29;20067;-81
2021/12/06 01:32:11;;;;;;;99.93;53.80;;;;;;;0.35;100.00;98912.28;4920135;29;20480;-81
2021/12/06 01:40:08;;;;;;;113.93;66.20;;;;;;;0.42;100.00;98928.38;4992960;28;20497;-81
2021/12/06 01:42:33;;;;;;;102.20;54.88;;;;;;;0.44;100.00;98929.22;4992421;28;20030;-81
2021/12/06 01:45:03;;;;;;;97.65;55.55;;;;;;;0.36;100.00;98929.34;4975259;28;20031;-81
2021/12/06 01:47:33;;;;;;;101.05;53.45;;;;;;;0.29;100.00;98926.91;4991680;28;20052;-81
2021/12/06 01:50:11;;;;;;;100.57;57.47;;;;;;;0.16;100.00;98906.59;4991995;28;20035;-81
2021/12/06 01:52:41;;;;;;;99.15;55.17;;;;;;;0.29;100.00;98947.38;4991829;28;20037;-81
2021/12/06 01:55:09;;;;;;;111.35;58.38;;;;;;;0.21;100.00;98934.69;4992180;28;20061;-81
2021/12/06 01:57:36;;;;;;;112.03;63.10;;;;;;;0.23;100.00;98949.19;4975674;28;20069;-81
2021/12/06 02:00:20;;;;;;;109.20;59.42;;;;;;;0.18;100.00;98950.13;4991443;28;20045;-81
2021/12/06 02:02:45;;;;;;;112.82;59.35;;;;;;;0.15;100.00;98945.91;5034317;28;20030;-81
2021/12/06 02:05:11;;;;;;;102.88;59.60;;;;;;;0.13;100.00;98947.66;5033854;28;20029;-81
2021/12/06 02:07:36;;;;;;;105.68;58.70;;;;;;;0.11;100.00;98951.09;5040748;28;20033;-81
2021/12/06 02:10:04;;;;;;;109.97;60.40;;;;;;;0.13;100.00;98960.47;5033723;28;20034;-81
2021/12/06 02:12:31;;;;;;;112.43;56.70;;;;;;;0.14;100.00;98963.84;5048718;28;20029;-81
2021/12/06 02:15:23;;;;;;;110.18;59.10;;;;;;;0.19;100.00;98974.88;5072421;28;20174;-81
2021/12/06 02:17:54;;;;;;;120.53;63.33;;;;;;;0.13;100.00;98967.28;5057653;28;20045;-82
2021/12/06 02:20:26;;;;;;;104.10;57.03;;;;;;;0.03;100.00;98953.75;5073603;28;20104;-81
2021/12/06 02:22:52;;;;;;;103.82;54.47;;;;;;;0.06;100.00;98961.41;5073612;28;20113;-81
2021/12/06 02:25:20;;;;;;;106.72;57.08;;;;;;;-0.02;100.00;98945.31;5055582;28;20020;-81
2021/12/06 02:27:47;;;;;;;108.63;54.97;;;;;;;0.09;100.00;98966.50;5062592;28;20025;-81
2021/12/06 02:30:14;;;;;;;99.63;53.10;;;;;;;0.05;100.00;98957.16;5024106;28;20069;-81
2021/12/06 02:32:42;;;;;;;103.80;52.80;;;;;;;0.02;100.00;98957.22;5029317;28;20045;-81
2021/12/06 02:35:14;;;;;;;100.20;53.30;;;;;;;0.00;100.00;98953.84;4994740;28;20630;-81
2021/12/06 02:37:52;;;;;;;101.50;53.38;;;;;;;-0.06;100.00;98959.88;5003778;28;20538;-81
2021/12/06 02:40:38;;;;;;;105.53;53.22;;;;;;;0.02;100.00;98975.13;5007042;28;20076;-81
2021/12/06 02:43:08;;;;;;;106.30;52.58;;;;;;;-0.05;100.00;98965.84;4952702;29;20049;-81
2021/12/06 02:45:34;;;;;;;110.47;56.22;;;;;;;-0.04;100.00;98965.84;4952450;29;20082;-81
2021/12/06 02:48:03;;;;;;;101.75;51.70;;;;;;;-0.06;100.00;98967.56;4952822;29;20126;-81
2021/12/06 02:50:35;;;;;;;100.15;52.25;;;;;;;-0.13;100.00;98965.94;4936359;29;20576;-81
2021/12/06 02:53:03;;;;;;;101.97;50.80;;;;;;;-0.05;100.00;98966.69;4952653;29;20417;-81
2021/12/06 02:55:36;;;;;;;94.95;49.42;;;;;;;0.08;100.00;98987.81;4949705;29;20454;-81
2021/12/06 02:58:15;;;;;;;99.40;51.13;;;;;;;0.04;100.00;98980.22;4936349;29;20043;-81
2021/12/06 03:00:48;;;;;;;100.85;53.42;;;;;;;-0.06;100.00;98972.66;4963291;28;20041;-81
2021/12/06 03:03:16;;;;;;;98.30;53.63;;;;;;;0.04;100.00;98986.16;4974808;28;20065;-81
2021/12/06 03:05:42;;;;;;;102.45;55.13;;;;;;;0.01;100.00;98980.28;4952163;29;20515;-81
2021/12/06 03:08:08;;;;;;;104.18;56.05;;;;;;;0.01;100.00;98980.28;4952189;29;20086;-81
2021/12/06 03:10:33;;;;;;;104.80;51.92;;;;;;;0.01;100.00;98975.16;4951727;28;20041;-81
2021/12/06 03:12:59;;;;;;;107.25;55.25;;;;;;;-0.05;100.00;98959.00;4973700;28;20522;-81
2021/12/06 03:15:28;;;;;;;111.90;57.88;;;;;;;-0.02;100.00;98965.78;4993968;28;20034;-81
2021/12/06 03:17:53;;;;;;;113.03;58.55;;;;;;;-0.16;100.00;98942.97;5010581;28;20038;-81
2021/12/06 03:20:22;;;;;;;104.07;52.95;;;;;;;-0.04;100.00;98963.28;5010333;28;20034;-81
2021/12/06 03:22:48;;;;;;;111.40;57.75;;;;;;;-0.05;100.00;98970.94;4993422;28;20061;-81
2021/12/06 03:25:15;;;;;;;107.13;57.28;;;;;;;0.00;100.00;98982.00;4993736;28;20155;-81
2021/12/06 03:27:41;;;;;;;111.35;57.53;;;;;;;0.05;100.00;98993.00;5011293;28;20037;-81
2021/12/06 03:30:12;;;;;;;107.03;55.63;;;;;;;0.00;100.00;98989.69;5016496;28;20327;-81
2021/12/06 03:32:37;;;;;;;107.32;54.58;;;;;;;-0.01;100.00;98985.41;4970760;28;20121;-81
2021/12/06 03:35:04;;;;;;;109.90;56.10;;;;;;;-0.07;100.00;98972.72;4954943;28;20134;-81
2021/12/06 03:37:31;;;;;;;100.45;54.22;;;;;;;0.02;100.00;99002.44;4954524;28;20465;-80
2021/12/06 03:39:56;;;;;;;105.70;52.30;;;;;;;0.04;100.00;99005.81;4955018;28;20098;-81
2021/12/06 03:42:24;;;;;;;96.07;50.58;;;;;;;0.02;100.00;99007.56;4977810;28;20425;-81
2021/12/06 03:44:50;;;;;;;110.30;53.88;;;;;;;0.06;100.00;99016.91;4993687;28;20042;-81
2021/12/06 03:47:21;;;;;;;103.20;52.28;;;;;;;-0.01;100.00;99006.72;4970563;28;20619;-81
2021/12/06 03:49:46;;;;;;;103.75;53.55;;;;;;;-0.03;100.00;99012.75;4970837;28;20081;-81
2021/12/06 03:52:13;;;;;;;95.53;50.20;;;;;;;0.03;100.00;99027.16;4951328;29;20039;-81
2021/12/06 03:54:40;;;;;;;106.75;55.40;;;;;;;0.02;100.00;99023.75;4951286;29;20519;-81
2021/12/06 03:57:06;;;;;;;99.90;51.38;;;;;;;-0.08;100.00;99005.13;4919553;29;20051;-81
2021/12/06 03:59:32;;;;;;;110.03;53.45;;;;;;;0.00;100.00;99022.97;4951154;29;20074;-81
2021/12/06 04:02:00;;;;;;;103.80;54.03;;;;;;;0.04;100.00;99026.28;4951357;29;20075;-81
2021/12/06 04:04:26;;;;;;;106.97;52.75;;;;;;;-0.03;100.00;99008.47;4951143;29;20499;-81
2021/12/06 04:06:53;;;;;;;114.07;57.05;;;;;;;-0.13;100.00;98995.81;4951230;29;20035;-81
2021/12/06 04:09:20;;;;;;;109.45;56.85;;;;;;;-0.11;100.00;99012.00;4958102;28;20046;-81
2021/12/06 04:11:47;;;;;;;105.90;57.00;;;;;;;-0.04;100.00;99026.44;4990044;28;20041;-81
2021/12/06 04:14:13;;;;;;;139.13;70.38;;;;;;;-0.02;100.00;99032.34;4989754;28;20065;-81
2021/12/06 04:16:39;;;;;;;99.85;51.97;;;;;;;-0.01;100.00;99041.72;4989785;28;20121;-81
2021/12/06 04:19:07;;;;;;;95.53;49.42;;;;;;;-0.01;100.00;99046.84;5006476;28;20050;-81
2021/12/06 04:21:33;;;;;;;88.65;46.33;;;;;;;-0.10;100.00;99029.06;5009502;28;20416;-81
2021/12/06 04:23:59;;;;;;;92.60;47.10;;;;;;;-0.07;100.00;99036.69;4970349;28;20035;-81
2021/12/06 04:26:24;;;;;;;88.50;47.80;;;;;;;-0.07;100.00;99041.81;4970396;28;20034;-81
2021/12/06 04:28:59;;;;;;;89.75;46.38;;;;;;;-0.07;100.00;99055.47;4970554;28;20043;-81
2021/12/06 04:31:30;;;;;;;96.22;48.28;;;;;;;-0.05;100.00;99052.88;4970310;28;20113;-81
2021/12/06 04:33:56;;;;;;;92.93;48.42;;;;;;;-0.06;100.00;99052.03;4970516;28;20070;-81
2021/12/06 04:36:23;;;;;;;92.35;47.63;;;;;;;-0.08;100.00;99046.09;4983746;28;20131;-81
2021/12/06 04:38:53;;;;;;;84.80;46.38;;;;;;;-0.02;100.00;99058.81;5013752;28;20038;-81
2021/12/06 04:41:19;;;;;;;84.28;42.30;;;;;;;-0.05;100.00;99052.88;5013256;28;20025;-81
2021/12/06 04:43:45;;;;;;;93.45;48.20;;;;;;;-0.10;100.00;99036.72;5004930;28;20049;-80
2021/12/06 04:46:13;;;;;;;97.07;50.05;;;;;;;-0.11;100.00;99042.72;5010669;28;20029;-81
2021/12/06 04:48:38;;;;;;;89.18;46.30;;;;;;;-0.07;100.00;99054.63;5012910;28;20037;-81
2021/12/06 04:51:04;;;;;;;89.28;46.22;;;;;;;-0.17;100.00;99033.44;4974121;28;20034;-81
2021/12/06 04:53:36;;;;;;;85.40;44.60;;;;;;;-0.08;100.00;99051.22;4971088;28;20085;-81
2021/12/06 04:56:13;;;;;;;80.65;43.97;;;;;;;0.01;100.00;99049.41;4977057;28;20591;-81
2021/12/06 04:58:45;;;;;;;85.30;46.28;;;;;;;-0.05;100.00;99048.59;4976890;28;20036;-81
2021/12/06 05:01:14;;;;;;;77.88;44.10;;;;;;;-0.16;100.00;99022.31;4993454;28;20036;-81
2021/12/06 05:03:40;;;;;;;97.60;48.83;;;;;;;0.02;100.00;99053.66;4993144;28;20141;-81
2021/12/06 05:06:11;;;;;;;88.20;45.10;;;;;;;0.02;100.00;99064.72;4993437;28;20116;-81
2021/12/06 05:08:38;;;;;;;;;;;;;;;0.05;100.00;99066.41;4954613;29;20142;-81
2021/12/06 05:11:05;;;;;;;145.77;63.25;;;;;;;-0.01;100.00;99052.81;4966397;28;19953;-81
2021/12/06 05:13:31;;;;;;;172.93;73.55;;;;;;;0.00;100.00;99058.81;4956222;28;20042;-81
2021/12/06 05:15:58;;;;;;;179.65;71.10;;;;;;;0.00;100.00;99066.47;4973639;28;20567;-80
2021/12/06 05:18:24;;;;;;;104.82;50.10;;;;;;;-0.01;100.00;99068.16;4971536;28;20577;-81
2021/12/06 05:20:51;;;;;;;85.15;45.15;;;;;;;-0.03;100.00;99069.91;4972353;28;20030;-81
2021/12/06 05:23:19;;;;;;;101.97;46.45;;;;;;;-0.12;100.00;99048.72;4973377;28;20039;-81
2021/12/06 05:25:47;;;;;;;110.07;48.42;;;;;;;-0.07;100.00;99062.28;4973595;28;20113;-81
2021/12/06 05:28:13;;;;;;;76.15;42.00;;;;;;;-0.11;100.00;99048.69;4980807;28;20038;-81
2021/12/06 05:30:40;;;;;;;87.10;44.03;;;;;;;-0.02;100.00;99071.59;4992733;28;20038;-81
2021/12/06 05:33:09;;;;;;;113.60;49.25;;;;;;;-0.03;100.00;99069.06;4992868;28;20038;-81
2021/12/06 05:35:35;;;;;;;100.07;45.38;;;;;;;-0.04;100.00;99068.22;4992682;28;20124;-81
2021/12/06 05:38:02;;;;;;;101.65;47.30;;;;;;;-0.06;100.00;99066.53;4979813;28;20054;-81
2021/12/06 05:40:32;;;;;;;91.97;46.53;;;;;;;-0.11;100.00;99061.50;5004740;28;20038;-81
2021/12/06 05:42:59;;;;;;;88.70;44.72;;;;;;;0.01;100.00;99080.97;5014912;28;20038;-81
2021/12/06 05:45:26;;;;;;;91.63;45.72;;;;;;;-0.17;100.00;99058.16;5014257;28;20440;-81
2021/12/06 05:47:53;;;;;;;93.20;44.95;;;;;;;-0.20;100.00;99053.09;5014609;28;20136;-81
2021/12/06 05:50:20;;;;;;;77.30;41.67;;;;;;;-0.18;100.00;99066.69;5013105;28;20037;-81
2021/12/06 05:52:49;;;;;;;92.68;46.03;;;;;;;-0.04;100.00;99098.94;4995990;28;20168;-90
2021/12/06 05:55:15;;;;;;;101.40;47.65;;;;;;;-0.09;100.00;99090.44;4997551;28;20088;-90
2021/12/06 05:57:41;;;;;;;114.95;51.65;;;;;;;0.00;100.00;99102.31;4993398;28;20501;-90
2021/12/06 06:00:12;;;;;;;108.38;51.00;;;;;;;0.05;100.00;99107.38;4997285;28;20112;-90
2021/12/06 06:02:41;;;;;;;90.65;46.45;;;;;;;0.01;100.00;99103.16;5013530;28;20088;-88
2021/12/06 06:05:09;;;;;;;128.43;55.63;;;;;;;-0.09;100.00;99098.13;5013820;28;20034;-90
2021/12/06 06:07:35;;;;;;;100.50;48.10;;;;;;;-0.04;100.00;99101.50;4996830;28;20045;-89
2021/12/06 06:10:00;;;;;;;95.93;49.03;;;;;;;0.07;100.00;99123.56;5003847;28;20542;-89
2021/12/06 06:12:28;;;;;;;86.50;43.65;;;;;;;0.05;100.00;99130.41;4973851;28;20042;-90
2021/12/06 06:14:55;;;;;;;113.95;53.80;;;;;;;0.06;100.00;99132.09;4958061;28;20047;-90
2021/12/06 06:17:20;;;;;;;115.43;52.35;;;;;;;0.06;100.00;99134.66;4935561;29;20035;-89
2021/12/06 06:19:50;;;;;;;115.38;52.85;;;;;;;-0.04;100.00;99121.16;4935767;29;20139;-90
2021/12/06 06:22:17;;;;;;;94.47;46.08;;;;;;;0.03;100.00;99140.66;4919514;29;20043;-89
2021/12/06 06:24:44;;;;;;;97.68;48.08;;;;;;;0.00;100.00;99138.16;4953099;29;20043;-90
2021/12/06 06:27:09;;;;;;;95.05;47.33;;;;;;;0.05;100.00;99156.88;4938677;29;20039;-88
2021/12/06 06:29:36;;;;;;;154.38;66.80;;;;;;;0.00;100.00;99145.84;4938283;29;20054;-89
2021/12/06 06:32:04;;;;;;;270.60;102.13;;;;;;;0.03;100.00;99156.03;4938918;29;20049;-88
2021/12/06 06:34:50;;;;;;;172.27;67.82;;;;;;;0.07;100.00;99162.81;4884499;29;20044;-89
2021/12/06 06:37:16;;;;;;;213.35;73.75;;;;;;;0.07;100.00;99170.47;4881815;29;20049;-89
2021/12/06 06:39:43;;;;;;;172.07;68.65;;;;;;;0.06;100.00;99167.97;4897236;29;20072;-88
2021/12/06 06:42:09;;;;;;;120.65;50.03;;;;;;;0.05;100.00;99174.78;4881263;29;20067;-88
2021/12/06 06:44:35;;;;;;;86.35;45.80;;;;;;;0.08;100.00;99182.41;4858946;29;20049;-89
2021/12/06 06:47:00;;;;;;;104.75;48.30;;;;;;;0.06;100.00;99181.59;4859241;29;20467;-88
2021/12/06 06:49:32;;;;;;;104.75;49.45;;;;;;;0.05;100.00;99184.19;4908862;29;20504;-88
2021/12/06 06:52:00;;;;;;;84.93;42.55;;;;;;;-0.01;100.00;99172.28;4934180;29;20036;-80
2021/12/06 06:54:25;;;;;;;75.30;38.22;;;;;;;-0.01;100.00;99173.13;4933432;29;20067;-81
2021/12/06 06:56:51;;;;;;;91.20;45.53;;;;;;;0.09;100.00;99191.81;4894808;29;20572;-81
2021/12/06 06:59:23;;;;;;;89.45;45.03;;;;;;;0.06;100.00;99188.44;4895037;29;20047;-80
2021/12/06 07:01:49;;;;;;;;;;;;;;;0.12;100.00;99202.00;4933434;29;20131;-80
2021/12/06 07:04:15;;;;;;;84.32;41.75;;;;;;;0.06;100.00;99193.56;4913905;29;20394;-81
2021/12/06 07:06:41;;;;;;;87.82;46.75;;;;;;;0.04;100.00;99191.00;4930277;29;20040;-80
2021/12/06 07:09:09;;;;;;;84.45;43.30;;;;;;;-0.02;100.00;99188.53;4933211;29;20047;-80
2021/12/06 07:11:37;;;;;;;81.10;41.95;;;;;;;-0.01;100.00;99191.06;4932729;29;20481;-80
2021/12/06 07:14:14;;;;;;;75.45;40.30;;;;;;;0.07;100.00;99210.59;4932752;29;20051;-81
2021/12/06 07:16:42;;;;;;;86.00;44.05;;;;;;;0.06;100.00;99214.03;4885929;29;20040;-81
2021/12/06 07:19:07;;;;;;;75.93;39.95;;;;;;;0.04;100.00;99206.34;4932349;29;20126;-80
2021/12/06 07:21:36;;;;;;;78.43;39.88;;;;;;;0.01;100.00;99201.28;4932725;29;20721;-80
2021/12/06 07:24:03;;;;;;;75.22;41.13;;;;;;;-0.01;100.00;99185.94;4932863;29;20071;-80
2021/12/06 07:26:29;;;;;;;72.35;38.65;;;;;;;0.12;100.00;99211.41;4932629;29;20028;-81
2021/12/06 07:28:55;;;;;;;73.72;41.20;;;;;;;0.11;100.00;99207.16;4916638;29;20127;-81
2021/12/06 07:31:25;;;;;;;71.55;40.15;;;;;;;0.10;100.00;99208.88;4932484;29;20114;-81
2021/12/06 07:33:51;;;;;;;;;;;;;;;0.13;100.00;99208.84;4933065;29;20031;-80
2021/12/06 07:36:20;;;;;;;69.38;39.35;;;;;;;0.03;100.00;99202.09;4987223;28;19914;-80
2021/12/06 07:38:50;;;;;;;73.07;38.90;;;;;;;0.07;100.00;99203.78;4990870;28;20524;-80
2021/12/06 07:41:17;;;;;;;74.87;42.80;;;;;;;0.09;100.00;99204.63;4990230;28;20498;-80
2021/12/06 07:43:44;;;;;;;77.97;44.53;;;;;;;0.13;100.00;99213.97;4974302;28;20302;-81
2021/12/06 07:46:11;;;;;;;74.78;42.50;;;;;;;0.05;100.00;99194.44;4974092;28;20038;-80
2021/12/06 07:48:37;;;;;;;76.57;42.15;;;;;;;0.11;100.00;99202.88;4990211;28;20125;-80
2021/12/06 07:51:05;;;;;;;69.40;40.42;;;;;;;0.02;100.00;99179.94;4990447;28;20047;-81
2021/12/06 07:53:31;;;;;;;61.40;35.80;;;;;;;0.02;100.00;99179.94;4989339;28;20041;-81
2021/12/06 07:55:58;;;;;;;69.68;37.50;;;;;;;0.12;100.00;99196.03;4989659;28;20042;-80
2021/12/06 07:58:25;;;;;;;77.25;44.25;;;;;;;0.13;100.00;99198.59;4998260;28;20061;-81
2021/12/06 08:00:55;;;;;;;153.32;76.50;;;;;;;0.18;100.00;99203.66;5009768;28;20532;-81
2021/12/06 08:03:23;;;;;;;92.13;46.92;;;;;;;0.06;100.00;99186.72;4993201;28;20026;-81
2021/12/06 08:05:51;;;;;;;66.05;33.83;;;;;;;0.10;100.00;99193.50;5009933;28;20026;-81
2021/12/06 08:08:24;;;;;;;70.03;35.97;;;;;;;0.16;100.00;99210.50;5027029;28;20042;-80
2021/12/06 08:11:16;;;;;;;69.70;36.00;;;;;;;0.16;100.00;99207.94;5030860;28;20114;-81
2021/12/06 08:13:46;;;;;;;65.57;36.17;;;;;;;0.12;100.00;99198.59;5033625;28;20075;-81
2021/12/06 08:16:17;;;;;;;69.68;37.92;;;;;;;0.14;100.00;99196.88;5051774;28;20028;-80
2021/12/06 08:18:44;;;;;;;67.47;37.23;;;;;;;0.08;100.00;99184.97;5034255;28;20119;-80
2021/12/06 08:21:13;;;;;;;67.45;39.00;;;;;;;0.20;100.00;99212.16;5047420;28;20079;-81
2021/12/06 08:23:39;;;;;;;62.13;35.00;;;;;;;0.22;100.00;99213.84;5051399;28;20032;-81
2021/12/06 08:26:07;;;;;;;60.53;35.60;;;;;;;0.22;100.00;99218.97;4999692;28;20037;-80
2021/12/06 08:28:35;;;;;;;65.57;36.88;;;;;;;0.24;100.00;99224.91;5033473;28;20025;-81
2021/12/06 08:31:03;;;;;;;63.10;35.83;;;;;;;0.26;100.00;99226.63;5035188;28;20033;-81
2021/12/06 08:33:30;;;;;;;68.80;38.45;;;;;;;0.29;100.00;99226.56;5062355;28;20029;-81
2021/12/06 08:35:57;;;;;;;63.92;37.13;;;;;;;0.24;100.00;99218.94;5037871;28;20033;-83
2021/12/06 08:38:27;;;;;;;54.75;33.83;;;;;;;0.24;100.00;99226.63;5033486;28;20021;-81
2021/12/06 08:40:54;;;;;;;60.25;34.85;;;;;;;0.29;100.00;99237.66;5070994;28;20052;-81
2021/12/06 08:43:21;;;;;;;65.72;40.33;;;;;;;0.28;100.00;99240.25;5053410;28;20035;-80
2021/12/06 08:45:55;;;;;;;70.63;36.10;;;;;;;0.33;100.00;99257.25;5071431;28;20697;-80
2021/12/06 08:48:25;;;;;;;60.05;33.53;;;;;;;0.33;100.00;99256.41;5042601;28;20028;-80
2021/12/06 08:50:55;;;;;;;47.17;29.80;;;;;;;0.20;100.00;99238.63;5033568;28;20429;-80
2021/12/06 08:53:22;;;;;;;70.07;39.17;;;;;;;0.28;100.00;99242.81;5008768;28;20046;-80
2021/12/06 08:55:50;;;;;;;67.40;41.03;;;;;;;0.18;100.00;99225.00;5009132;28;20085;-81
2021/12/06 08:58:20;;;;;;;60.67;36.25;;;;;;;0.23;100.00;99232.63;5006571;28;20045;-79
2021/12/06 09:00:46;;;;;;;58.80;38.78;;;;;;;0.31;100.00;99251.31;5009256;28;20029;-80
2021/12/06 09:03:14;;;;;;;58.80;37.20;;;;;;;0.14;100.00;99225.03;4992678;28;20073;-80
2021/12/06 09:05:46;;;;;;;67.10;39.25;;;;;;;0.30;100.00;99252.19;5018682;28;20365;-80
2021/12/06 09:08:12;;;;;;;83.93;46.08;;;;;;;0.34;100.00;99258.97;5026291;28;20042;-79
2021/12/06 09:10:39;;;;;;;61.88;36.50;;;;;;;0.27;100.00;99251.38;5028608;28;20034;-80
2021/12/06 09:13:07;;;;;;;57.45;37.25;;;;;;;0.24;100.00;99249.69;5028610;28;20084;-80
2021/12/06 09:15:36;;;;;;;81.07;49.15;;;;;;;0.42;100.00;99272.53;5028442;28;20053;-80
2021/12/06 09:18:03;;;;;;;68.20;40.97;;;;;;;0.33;100.00;99259.81;5028894;28;20120;-80
2021/12/06 09:20:37;;;;;;;63.38;37.38;;;;;;;0.43;100.00;99278.50;5029400;28;20040;-80
2021/12/06 09:23:16;;;;;;;66.35;40.22;;;;;;;0.36;100.00;99261.50;5032683;28;20040;-80
2021/12/06 09:25:44;;;;;;;60.35;37.28;;;;;;;0.44;100.00;99278.47;5032199;28;20037;-80
2021/12/06 09:28:14;;;;;;;68.35;38.78;;;;;;;0.41;100.00;99262.28;4992679;28;20129;-80
2021/12/06 09:30:41;;;;;;;66.07;41.85;;;;;;;0.46;100.00;99270.75;4976557;28;20050;-80
2021/12/06 09:33:12;;;;;;;68.43;41.40;;;;;;;0.46;100.00;99270.75;4992624;28;20068;-80
2021/12/06 09:35:41;;;;;;;71.68;42.78;;;;;;;0.52;100.00;99285.25;4992518;28;20042;-81
2021/12/06 09:38:08;;;;;;;73.00;43.67;;;;;;;0.50;100.00;99275.81;4992716;28;20038;-80
2021/12/06 09:40:39;;;;;;;69.85;43.78;;;;;;;0.52;100.00;99282.69;4988122;28;20457;-81
2021/12/06 09:43:15;;;;;;;66.03;40.70;;;;;;;0.50;100.00;99286.06;4992618;28;20479;-80
2021/12/06 09:45:42;;;;;;;62.80;39.47;;;;;;;0.35;100.00;99258.09;4976144;28;20516;-80
2021/12/06 09:48:09;;;;;;;67.00;41.40;;;;;;;0.44;100.00;99270.78;4992559;28;20034;-80
2021/12/06 09:50:46;;;;;;;64.88;39.15;;;;;;;0.42;100.00;99271.66;4965104;28;20042;-81
2021/12/06 09:53:16;;;;;;;62.83;35.13;;;;;;;0.50;100.00;99286.06;4972945;28;20061;-81
2021/12/06 09:55:45;;;;;;;63.75;38.20;;;;;;;0.55;100.00;99296.31;4974366;28;20038;-80
2021/12/06 09:58:11;;;;;;;67.53;40.45;;;;;;;0.42;100.00;99272.53;4976117;28;20188;-80
2021/12/06 10:00:44;;;;;;;63.83;39.92;;;;;;;0.40;100.00;99269.13;4992072;28;20109;-80
2021/12/06 10:03:14;;;;;;;66.40;40.50;;;;;;;0.45;100.00;99285.28;4992128;28;20065;-80
2021/12/06 10:05:40;;;;;;;69.07;42.50;;;;;;;0.39;100.00;99280.25;4975912;28;20084;-80
2021/12/06 10:08:06;;;;;;;66.32;42.35;;;;;;;0.48;100.00;99308.31;4975866;28;20324;-80
2021/12/06 10:10:31;;;;;;;59.80;38.53;;;;;;;0.45;100.00;99305.78;4975599;28;20133;-80
2021/12/06 10:12:57;;;;;;;70.07;43.58;;;;;;;0.36;100.00;99279.44;4975622;28;20060;-81
2021/12/06 10:15:26;;;;;;;83.93;42.10;;;;;;;0.45;100.00;99292.97;4991547;28;20093;-80
2021/12/06 10:17:59;;;;;;;65.68;38.53;;;;;;;0.45;100.00;99279.31;4991831;28;20537;-79
2021/12/06 10:20:26;;;;;;;63.72;40.35;;;;;;;0.45;100.00;99269.06;4990538;28;20158;-80
2021/12/06 10:22:54;;;;;;;64.13;38.35;;;;;;;0.57;100.00;99289.44;4975482;28;20076;-80
2021/12/06 10:25:21;;;;;;;73.28;42.95;;;;;;;0.57;100.00;99280.91;4991467;28;20116;-80
2021/12/06 10:27:57;;;;;;;65.03;39.60;;;;;;;0.58;100.00;99286.00;4991763;28;20077;-80
2021/12/06 10:30:24;;;;;;;66.63;40.22;;;;;;;0.45;100.00;99269.06;4991495;28;20038;-79
2021/12/06 10:33:01;;;;;;;64.47;36.03;;;;;;;0.60;100.00;99293.69;4971224;28;20043;-80
2021/12/06 10:35:27;;;;;;;62.40;38.13;;;;;;;0.55;100.00;99283.50;4971168;28;20121;-80
2021/12/06 10:37:56;;;;;;;78.35;44.70;;;;;;;0.58;100.00;99295.41;4971228;28;20038;-80
2021/12/06 10:40:30;;;;;;;70.90;43.10;;;;;;;0.57;100.00;99291.16;4954662;28;20027;-80
2021/12/06 10:42:57;;;;;;;69.97;40.30;;;;;;;0.34;100.00;99258.97;4954870;28;20046;-80
2021/12/06 10:45:42;;;;;;;76.22;43.90;;;;;;;0.44;100.00;99280.19;4971111;28;20537;-80
2021/12/06 10:48:09;;;;;;;70.38;41.05;;;;;;;0.40;100.00;99268.28;4972033;28;20046;-80
2021/12/06 10:50:38;;;;;;;69.32;42.67;;;;;;;0.39;100.00;99279.41;4971760;28;20600;-80
2021/12/06 10:53:04;;;;;;;81.70;43.72;;;;;;;0.51;100.00;99297.22;4962132;28;20674;-80
2021/12/06 10:55:33;;;;;;;68.60;43.40;;;;;;;0.38;100.00;99278.56;5010679;28;20034;-80
2021/12/06 10:58:08;;;;;;;81.65;46.03;;;;;;;0.44;100.00;99287.88;5010825;28;20517;-80
2021/12/06 11:00:39;;;;;;;88.50;46.60;;;;;;;0.54;100.00;99302.28;4994140;28;20094;-80
2021/12/06 11:03:18;;;;;;;83.15;45.22;;;;;;;0.49;100.00;99288.66;4978921;28;20034;-80
2021/12/06 11:05:44;;;;;;;71.25;42.17;;;;;;;0.48;100.00;99292.94;4994322;28;20541;-80
2021/12/06 11:08:15;;;;;;;75.75;41.35;;;;;;;0.51;100.00;99289.50;5010534;28;20034;-80
2021/12/06 11:10:55;;;;;;;77.07;44.05;;;;;;;0.53;100.00;99295.47;4993864;28;20161;-80
2021/12/06 11:13:27;;;;;;;71.97;40.28;;;;;;;0.46;100.00;99283.56;5010177;28;20061;-80
2021/12/06 11:16:07;;;;;;;71.78;39.47;;;;;;;0.45;100.00;99292.13;4993615;28;20752;-81
2021/12/06 11:18:35;;;;;;;70.95;40.53;;;;;;;0.41;100.00;99285.34;5012429;28;20044;-80
2021/12/06 11:21:02;;;;;;;78.97;43.30;;;;;;;0.51;100.00;99302.31;5010312;28;20034;-81
2021/12/06 11:23:28;;;;;;;80.28;43.90;;;;;;;0.36;100.00;99287.97;4993940;28;20042;-81
2021/12/06 11:25:56;;;;;;;93.07;44.08;;;;;;;0.45;100.00;99295.53;5010280;28;20036;-80
2021/12/06 11:28:43;;;;;;;79.97;41.30;;;;;;;0.39;100.00;99292.22;5009722;28;20081;-81
2021/12/06 11:31:08;;;;;;;76.30;39.03;;;;;;;0.42;100.00;99300.72;4894694;29;20040;-81